sensor_id;sensor_type;location;lat;lon;timestamp;temperature;humidity
28773;DHT22;15925;51.222;5.678;2024-03-02T00:00:10;9.50;99.90
28773;DHT22;15925;51.222;5.678;2024-03-02T00:02:42;9.50;99.90
28773;DHT22;15925;51.222;5.678;2024-03-02T00:05:20;9.50;99.90
28773;DHT22;15925;51.222;5.678;2024-03-02T00:07:56;9.50;99.90
28773;DHT22;15925;51.222;5.678;2024-03-02T00:10:25;9.60;99.90
28773;DHT22;15925;51.222;5.678;2024-03-02T00:12:55;9.60;99.90
28773;DHT22;15925;51.222;5.678;2024-03-02T00:18:11;9.60;99.90
28773;DHT22;15925;51.222;5.678;2024-03-02T00:20:37;9.60;99.90
28773;DHT22;15925;51.222;5.678;2024-03-02T00:23:04;9.70;99.90
28773;DHT22;15925;51.222;5.678;2024-03-02T00:25:44;9.70;99.90
28773;DHT22;15925;51.222;5.678;2024-03-02T00:28:14;9.70;99.90
28773;DHT22;15925;51.222;5.678;2024-03-02T00:33:15;9.70;99.90
28773;DHT22;15925;51.222;5.678;2024-03-02T00:35:44;9.50;99.90
28773;DHT22;15925;51.222;5.678;2024-03-02T00:38:10;9.10;99.90
28773;DHT22;15925;51.222;5.678;2024-03-02T00:40:36;8.80;99.90
28773;DHT22;15925;51.222;5.678;2024-03-02T00:43:02;8.80;99.90
28773;DHT22;15925;51.222;5.678;2024-03-02T00:45:29;8.80;99.90
28773;DHT22;15925;51.222;5.678;2024-03-02T00:47:55;8.80;99.90
28773;DHT22;15925;51.222;5.678;2024-03-02T00:50:21;8.80;99.90
28773;DHT22;15925;51.222;5.678;2024-03-02T00:52:47;8.80;99.90
28773;DHT22;15925;51.222;5.678;2024-03-02T00:55:14;8.70;99.90
28773;DHT22;15925;51.222;5.678;2024-03-02T00:57:39;8.60;99.90
28773;DHT22;15925;51.222;5.678;2024-03-02T01:00:06;8.60;99.90
28773;DHT22;15925;51.222;5.678;2024-03-02T01:02:35;8.60;99.90
28773;DHT22;15925;51.222;5.678;2024-03-02T01:05:01;8.70;99.90
28773;DHT22;15925;51.222;5.678;2024-03-02T01:07:27;8.60;99.90
28773;DHT22;15925;51.222;5.678;2024-03-02T01:09:53;8.60;99.90
28773;DHT22;15925;51.222;5.678;2024-03-02T01:12:18;8.60;99.90
28773;DHT22;15925;51.222;5.678;2024-03-02T01:14:44;8.60;99.90
28773;DHT22;15925;51.222;5.678;2024-03-02T01:17:10;8.60;99.90
28773;DHT22;15925;51.222;5.678;2024-03-02T01:19:36;8.70;99.90
28773;DHT22;15925;51.222;5.678;2024-03-02T01:22:02;8.70;99.90
28773;DHT22;15925;51.222;5.678;2024-03-02T01:24:28;8.70;99.90
28773;DHT22;15925;51.222;5.678;2024-03-02T01:26:53;8.80;99.90
28773;DHT22;15925;51.222;5.678;2024-03-02T01:29:19;8.60;99.90
28773;DHT22;15925;51.222;5.678;2024-03-02T01:31:45;8.60;99.90
28773;DHT22;15925;51.222;5.678;2024-03-02T01:34:11;8.60;99.90
28773;DHT22;15925;51.222;5.678;2024-03-02T01:36:38;8.70;99.90
28773;DHT22;15925;51.222;5.678;2024-03-02T01:39:03;8.60;99.90
28773;DHT22;15925;51.222;5.678;2024-03-02T01:41:34;8.60;99.90
28773;DHT22;15925;51.222;5.678;2024-03-02T01:44:00;8.50;99.90
28773;DHT22;15925;51.222;5.678;2024-03-02T01:46:25;8.50;99.90
28773;DHT22;15925;51.222;5.678;2024-03-02T01:48:51;8.60;99.90
28773;DHT22;15925;51.222;5.678;2024-03-02T01:51:17;8.60;99.90
28773;DHT22;15925;51.222;5.678;2024-03-02T01:53:43;8.70;99.90
28773;DHT22;15925;51.222;5.678;2024-03-02T01:56:08;8.60;99.90
28773;DHT22;15925;51.222;5.678;2024-03-02T01:58:34;8.70;99.90
28773;DHT22;15925;51.222;5.678;2024-03-02T02:01:00;8.60;99.90
28773;DHT22;15925;51.222;5.678;2024-03-02T02:03:26;8.60;99.90
28773;DHT22;15925;51.222;5.678;2024-03-02T02:05:51;8.60;99.90
28773;DHT22;15925;51.222;5.678;2024-03-02T02:08:17;8.50;99.90
28773;DHT22;15925;51.222;5.678;2024-03-02T02:10:43;8.50;99.90
28773;DHT22;15925;51.222;5.678;2024-03-02T02:13:09;8.40;99.90
28773;DHT22;15925;51.222;5.678;2024-03-02T02:15:35;8.40;99.90
28773;DHT22;15925;51.222;5.678;2024-03-02T02:18:02;8.40;99.90
28773;DHT22;15925;51.222;5.678;2024-03-02T02:20:29;8.40;99.90
28773;DHT22;15925;51.222;5.678;2024-03-02T02:25:20;8.40;99.90
28773;DHT22;15925;51.222;5.678;2024-03-02T02:27:46;8.30;99.90
28773;DHT22;15925;51.222;5.678;2024-03-02T02:30:12;8.30;99.90
28773;DHT22;15925;51.222;5.678;2024-03-02T02:32:38;8.40;99.90
28773;DHT22;15925;51.222;5.678;2024-03-02T02:35:04;8.50;99.90
28773;DHT22;15925;51.222;5.678;2024-03-02T02:37:30;8.40;99.90
28773;DHT22;15925;51.222;5.678;2024-03-02T02:39:56;8.40;99.90
28773;DHT22;15925;51.222;5.678;2024-03-02T02:42:22;8.50;99.90
28773;DHT22;15925;51.222;5.678;2024-03-02T02:44:47;8.50;99.90
28773;DHT22;15925;51.222;5.678;2024-03-02T02:47:13;8.50;99.90
28773;DHT22;15925;51.222;5.678;2024-03-02T02:49:39;8.40;99.90
28773;DHT22;15925;51.222;5.678;2024-03-02T02:52:05;8.40;99.90
28773;DHT22;15925;51.222;5.678;2024-03-02T02:54:30;8.30;99.90
28773;DHT22;15925;51.222;5.678;2024-03-02T02:56:56;8.40;99.90
28773;DHT22;15925;51.222;5.678;2024-03-02T02:59:22;8.30;99.90
28773;DHT22;15925;51.222;5.678;2024-03-02T03:01:47;8.30;99.90
28773;DHT22;15925;51.222;5.678;2024-03-02T03:04:13;8.30;99.90
28773;DHT22;15925;51.222;5.678;2024-03-02T03:06:39;8.30;99.90
28773;DHT22;15925;51.222;5.678;2024-03-02T03:09:04;8.20;99.90
28773;DHT22;15925;51.222;5.678;2024-03-02T03:11:30;8.20;99.90
28773;DHT22;15925;51.222;5.678;2024-03-02T03:13:56;8.30;99.90
28773;DHT22;15925;51.222;5.678;2024-03-02T03:16:22;8.30;99.90
28773;DHT22;15925;51.222;5.678;2024-03-02T03:18:47;8.30;99.90
28773;DHT22;15925;51.222;5.678;2024-03-02T03:21:16;8.30;99.90
28773;DHT22;15925;51.222;5.678;2024-03-02T03:23:41;8.30;99.90
28773;DHT22;15925;51.222;5.678;2024-03-02T03:26:07;8.20;99.90
28773;DHT22;15925;51.222;5.678;2024-03-02T03:28:33;8.20;99.90
28773;DHT22;15925;51.222;5.678;2024-03-02T03:30:59;8.20;99.90
28773;DHT22;15925;51.222;5.678;2024-03-02T03:33:24;8.20;99.90
28773;DHT22;15925;51.222;5.678;2024-03-02T03:35:50;8.10;99.90
28773;DHT22;15925;51.222;5.678;2024-03-02T03:38:16;8.10;99.90
28773;DHT22;15925;51.222;5.678;2024-03-02T03:40:41;8.10;99.90
28773;DHT22;15925;51.222;5.678;2024-03-02T03:43:07;8.20;99.90
28773;DHT22;15925;51.222;5.678;2024-03-02T03:45:33;8.20;99.90
28773;DHT22;15925;51.222;5.678;2024-03-02T03:47:59;8.30;99.90
28773;DHT22;15925;51.222;5.678;2024-03-02T03:50:25;8.30;99.90
28773;DHT22;15925;51.222;5.678;2024-03-02T03:52:51;8.30;99.90
28773;DHT22;15925;51.222;5.678;2024-03-02T03:55:17;8.40;99.90
28773;DHT22;15925;51.222;5.678;2024-03-02T03:57:42;8.40;99.90
28773;DHT22;15925;51.222;5.678;2024-03-02T04:00:08;8.40;99.90
28773;DHT22;15925;51.222;5.678;2024-03-02T04:02:38;8.40;99.90
28773;DHT22;15925;51.222;5.678;2024-03-02T04:05:04;8.40;99.90
28773;DHT22;15925;51.222;5.678;2024-03-02T04:07:35;8.40;99.90
28773;DHT22;15925;51.222;5.678;2024-03-02T04:10:10;8.20;99.90
28773;DHT22;15925;51.222;5.678;2024-03-02T04:12:36;8.30;99.90
28773;DHT22;15925;51.222;5.678;2024-03-02T04:15:04;8.40;99.90
28773;DHT22;15925;51.222;5.678;2024-03-02T04:17:32;8.30;99.90
28773;DHT22;15925;51.222;5.678;2024-03-02T04:19:59;8.30;99.90
28773;DHT22;15925;51.222;5.678;2024-03-02T04:22:25;8.30;99.90
28773;DHT22;15925;51.222;5.678;2024-03-02T04:24:51;8.30;99.90
28773;DHT22;15925;51.222;5.678;2024-03-02T04:27:17;8.20;99.90
28773;DHT22;15925;51.222;5.678;2024-03-02T04:29:43;8.30;99.90
28773;DHT22;15925;51.222;5.678;2024-03-02T04:32:08;8.30;99.90
28773;DHT22;15925;51.222;5.678;2024-03-02T04:34:35;8.40;99.90
28773;DHT22;15925;51.222;5.678;2024-03-02T04:37:01;8.40;99.90
28773;DHT22;15925;51.222;5.678;2024-03-02T04:39:27;8.40;99.90
28773;DHT22;15925;51.222;5.678;2024-03-02T04:41:52;8.40;99.90
28773;DHT22;15925;51.222;5.678;2024-03-02T04:44:18;8.40;99.90
28773;DHT22;15925;51.222;5.678;2024-03-02T04:46:44;8.30;99.90
28773;DHT22;15925;51.222;5.678;2024-03-02T04:49:10;8.40;99.90
28773;DHT22;15925;51.222;5.678;2024-03-02T04:51:35;8.40;99.90
28773;DHT22;15925;51.222;5.678;2024-03-02T04:54:01;8.40;99.90
28773;DHT22;15925;51.222;5.678;2024-03-02T04:56:27;8.30;99.90
28773;DHT22;15925;51.222;5.678;2024-03-02T04:58:58;8.40;99.90
28773;DHT22;15925;51.222;5.678;2024-03-02T05:01:24;8.30;99.90
28773;DHT22;15925;51.222;5.678;2024-03-02T05:03:49;8.40;99.90
28773;DHT22;15925;51.222;5.678;2024-03-02T05:06:15;8.30;99.90
28773;DHT22;15925;51.222;5.678;2024-03-02T05:08:41;8.30;99.90
28773;DHT22;15925;51.222;5.678;2024-03-02T05:11:07;8.30;99.90
28773;DHT22;15925;51.222;5.678;2024-03-02T05:13:51;8.30;99.90
28773;DHT22;15925;51.222;5.678;2024-03-02T05:16:17;8.30;99.90
28773;DHT22;15925;51.222;5.678;2024-03-02T05:18:42;8.30;99.90
28773;DHT22;15925;51.222;5.678;2024-03-02T05:21:08;8.20;99.90
28773;DHT22;15925;51.222;5.678;2024-03-02T05:23:34;8.10;99.90
28773;DHT22;15925;51.222;5.678;2024-03-02T05:25:59;8.20;99.90
28773;DHT22;15925;51.222;5.678;2024-03-02T05:28:25;8.10;99.90
28773;DHT22;15925;51.222;5.678;2024-03-02T05:30:51;8.20;99.90
28773;DHT22;15925;51.222;5.678;2024-03-02T05:33:17;8.10;99.90
28773;DHT22;15925;51.222;5.678;2024-03-02T05:35:44;8.10;99.90
28773;DHT22;15925;51.222;5.678;2024-03-02T05:38:09;8.10;99.90
28773;DHT22;15925;51.222;5.678;2024-03-02T05:40:35;8.00;99.90
28773;DHT22;15925;51.222;5.678;2024-03-02T05:43:01;8.00;99.90
28773;DHT22;15925;51.222;5.678;2024-03-02T05:45:27;8.10;99.90
28773;DHT22;15925;51.222;5.678;2024-03-02T05:47:52;8.00;99.90
28773;DHT22;15925;51.222;5.678;2024-03-02T05:50:18;8.00;99.90
28773;DHT22;15925;51.222;5.678;2024-03-02T05:52:45;8.00;99.90
28773;DHT22;15925;51.222;5.678;2024-03-02T05:55:11;8.00;99.90
28773;DHT22;15925;51.222;5.678;2024-03-02T05:57:37;7.90;99.90
28773;DHT22;15925;51.222;5.678;2024-03-02T06:00:21;7.90;99.90
28773;DHT22;15925;51.222;5.678;2024-03-02T06:02:50;7.90;99.90
28773;DHT22;15925;51.222;5.678;2024-03-02T06:05:17;7.90;99.90
28773;DHT22;15925;51.222;5.678;2024-03-02T06:07:44;7.90;99.90
28773;DHT22;15925;51.222;5.678;2024-03-02T06:10:10;7.80;99.90
28773;DHT22;15925;51.222;5.678;2024-03-02T06:12:36;7.80;99.90
28773;DHT22;15925;51.222;5.678;2024-03-02T06:15:02;7.70;99.90
28773;DHT22;15925;51.222;5.678;2024-03-02T06:17:29;7.70;99.90
28773;DHT22;15925;51.222;5.678;2024-03-02T06:19:55;7.80;99.90
28773;DHT22;15925;51.222;5.678;2024-03-02T06:22:21;7.70;99.90
28773;DHT22;15925;51.222;5.678;2024-03-02T06:24:51;7.70;99.90
28773;DHT22;15925;51.222;5.678;2024-03-02T06:27:17;7.60;99.90
28773;DHT22;15925;51.222;5.678;2024-03-02T06:29:43;7.70;99.90
28773;DHT22;15925;51.222;5.678;2024-03-02T06:32:08;7.70;99.90
28773;DHT22;15925;51.222;5.678;2024-03-02T06:34:34;7.60;99.90
28773;DHT22;15925;51.222;5.678;2024-03-02T06:37:00;7.60;99.90
28773;DHT22;15925;51.222;5.678;2024-03-02T06:39:26;7.60;99.90
28773;DHT22;15925;51.222;5.678;2024-03-02T06:41:52;7.60;99.90
28773;DHT22;15925;51.222;5.678;2024-03-02T06:44:18;7.60;99.90
28773;DHT22;15925;51.222;5.678;2024-03-02T06:46:43;7.50;99.90
28773;DHT22;15925;51.222;5.678;2024-03-02T06:49:09;7.50;99.90
28773;DHT22;15925;51.222;5.678;2024-03-02T06:51:36;7.60;99.90
28773;DHT22;15925;51.222;5.678;2024-03-02T06:54:02;7.50;99.90
28773;DHT22;15925;51.222;5.678;2024-03-02T06:56:28;7.50;99.90
28773;DHT22;15925;51.222;5.678;2024-03-02T06:58:54;7.40;99.90
28773;DHT22;15925;51.222;5.678;2024-03-02T07:01:19;7.40;99.90
28773;DHT22;15925;51.222;5.678;2024-03-02T07:03:46;7.50;99.90
28773;DHT22;15925;51.222;5.678;2024-03-02T07:06:11;7.50;99.90
28773;DHT22;15925;51.222;5.678;2024-03-02T07:08:37;7.50;99.90
28773;DHT22;15925;51.222;5.678;2024-03-02T07:11:03;7.50;99.90
28773;DHT22;15925;51.222;5.678;2024-03-02T07:13:29;7.50;99.90
28773;DHT22;15925;51.222;5.678;2024-03-02T07:15:55;7.50;99.90
28773;DHT22;15925;51.222;5.678;2024-03-02T07:18:30;7.60;99.90
28773;DHT22;15925;51.222;5.678;2024-03-02T07:20:59;7.60;99.90
28773;DHT22;15925;51.222;5.678;2024-03-02T07:23:26;7.70;99.90
28773;DHT22;15925;51.222;5.678;2024-03-02T07:25:53;7.70;99.90
28773;DHT22;15925;51.222;5.678;2024-03-02T07:28:25;7.80;99.90
28773;DHT22;15925;51.222;5.678;2024-03-02T07:31:04;7.80;99.90
28773;DHT22;15925;51.222;5.678;2024-03-02T07:33:30;7.90;99.90
28773;DHT22;15925;51.222;5.678;2024-03-02T07:35:57;7.90;99.90
28773;DHT22;15925;51.222;5.678;2024-03-02T07:38:25;7.90;99.90
28773;DHT22;15925;51.222;5.678;2024-03-02T07:40:51;8.00;99.90
28773;DHT22;15925;51.222;5.678;2024-03-02T07:43:17;8.00;99.90
28773;DHT22;15925;51.222;5.678;2024-03-02T07:45:43;8.00;99.90
28773;DHT22;15925;51.222;5.678;2024-03-02T07:48:09;8.10;99.90
28773;DHT22;15925;51.222;5.678;2024-03-02T07:50:35;8.10;99.90
28773;DHT22;15925;51.222;5.678;2024-03-02T07:53:01;8.10;99.90
28773;DHT22;15925;51.222;5.678;2024-03-02T07:55:27;8.10;99.90
28773;DHT22;15925;51.222;5.678;2024-03-02T07:57:53;8.20;99.90
28773;DHT22;15925;51.222;5.678;2024-03-02T08:00:19;8.10;99.90
28773;DHT22;15925;51.222;5.678;2024-03-02T08:02:44;8.20;99.90
28773;DHT22;15925;51.222;5.678;2024-03-02T08:05:10;8.20;99.90
28773;DHT22;15925;51.222;5.678;2024-03-02T08:07:36;8.20;99.90
28773;DHT22;15925;51.222;5.678;2024-03-02T08:10:02;8.30;99.90
28773;DHT22;15925;51.222;5.678;2024-03-02T08:12:28;8.30;99.90
28773;DHT22;15925;51.222;5.678;2024-03-02T08:14:54;8.30;99.90
28773;DHT22;15925;51.222;5.678;2024-03-02T08:17:19;8.30;99.90
28773;DHT22;15925;51.222;5.678;2024-03-02T08:19:45;8.40;99.90
28773;DHT22;15925;51.222;5.678;2024-03-02T08:22:16;8.40;99.90
28773;DHT22;15925;51.222;5.678;2024-03-02T08:24:42;8.40;99.90
28773;DHT22;15925;51.222;5.678;2024-03-02T08:27:08;8.50;99.90
28773;DHT22;15925;51.222;5.678;2024-03-02T08:29:35;8.40;99.90
28773;DHT22;15925;51.222;5.678;2024-03-02T08:32:01;8.40;99.90
28773;DHT22;15925;51.222;5.678;2024-03-02T08:34:26;8.50;99.90
28773;DHT22;15925;51.222;5.678;2024-03-02T08:36:52;8.60;99.90
28773;DHT22;15925;51.222;5.678;2024-03-02T08:39:18;8.60;99.90
28773;DHT22;15925;51.222;5.678;2024-03-02T08:41:45;8.60;99.90
28773;DHT22;15925;51.222;5.678;2024-03-02T08:44:11;8.70;99.90
28773;DHT22;15925;51.222;5.678;2024-03-02T08:46:39;8.80;99.90
28773;DHT22;15925;51.222;5.678;2024-03-02T08:49:04;8.80;99.90
28773;DHT22;15925;51.222;5.678;2024-03-02T08:51:30;8.90;99.90
28773;DHT22;15925;51.222;5.678;2024-03-02T08:53:57;8.90;99.90
28773;DHT22;15925;51.222;5.678;2024-03-02T08:56:24;9.00;99.90
28773;DHT22;15925;51.222;5.678;2024-03-02T08:58:50;9.00;99.90
28773;DHT22;15925;51.222;5.678;2024-03-02T09:01:17;9.10;99.90
28773;DHT22;15925;51.222;5.678;2024-03-02T09:03:43;9.20;99.90
28773;DHT22;15925;51.222;5.678;2024-03-02T09:06:12;9.20;99.90
28773;DHT22;15925;51.222;5.678;2024-03-02T09:08:39;9.30;99.90
28773;DHT22;15925;51.222;5.678;2024-03-02T09:11:08;9.40;99.90
28773;DHT22;15925;51.222;5.678;2024-03-02T09:13:34;9.40;99.90
28773;DHT22;15925;51.222;5.678;2024-03-02T09:16:00;9.50;99.90
28773;DHT22;15925;51.222;5.678;2024-03-02T09:18:25;9.60;99.90
28773;DHT22;15925;51.222;5.678;2024-03-02T09:20:51;9.60;99.90
28773;DHT22;15925;51.222;5.678;2024-03-02T09:23:17;9.60;99.90
28773;DHT22;15925;51.222;5.678;2024-03-02T09:25:43;9.70;99.90
28773;DHT22;15925;51.222;5.678;2024-03-02T09:28:09;9.70;99.90
28773;DHT22;15925;51.222;5.678;2024-03-02T09:30:35;9.80;99.90
28773;DHT22;15925;51.222;5.678;2024-03-02T09:33:01;9.80;99.90
28773;DHT22;15925;51.222;5.678;2024-03-02T09:35:26;9.90;99.90
28773;DHT22;15925;51.222;5.678;2024-03-02T09:37:52;9.90;99.90
28773;DHT22;15925;51.222;5.678;2024-03-02T09:40:22;10.00;99.90
28773;DHT22;15925;51.222;5.678;2024-03-02T09:42:48;10.10;99.90
28773;DHT22;15925;51.222;5.678;2024-03-02T09:45:26;10.20;99.90
28773;DHT22;15925;51.222;5.678;2024-03-02T09:47:52;10.30;99.90
28773;DHT22;15925;51.222;5.678;2024-03-02T09:50:18;10.30;99.90
28773;DHT22;15925;51.222;5.678;2024-03-02T09:52:44;10.30;99.90
28773;DHT22;15925;51.222;5.678;2024-03-02T09:55:13;10.40;99.90
28773;DHT22;15925;51.222;5.678;2024-03-02T09:57:41;10.50;99.90
28773;DHT22;15925;51.222;5.678;2024-03-02T10:00:08;10.50;99.90
28773;DHT22;15925;51.222;5.678;2024-03-02T10:02:34;10.60;99.90
28773;DHT22;15925;51.222;5.678;2024-03-02T10:05:00;10.60;99.90
28773;DHT22;15925;51.222;5.678;2024-03-02T10:07:25;10.70;99.90
28773;DHT22;15925;51.222;5.678;2024-03-02T10:09:51;10.80;99.90
28773;DHT22;15925;51.222;5.678;2024-03-02T10:12:18;10.90;99.90
28773;DHT22;15925;51.222;5.678;2024-03-02T10:14:44;10.90;99.90
28773;DHT22;15925;51.222;5.678;2024-03-02T10:17:14;11.00;99.90
28773;DHT22;15925;51.222;5.678;2024-03-02T10:19:41;11.00;99.90
28773;DHT22;15925;51.222;5.678;2024-03-02T10:22:08;11.00;99.90
28773;DHT22;15925;51.222;5.678;2024-03-02T10:24:36;11.10;99.90
28773;DHT22;15925;51.222;5.678;2024-03-02T10:29:37;11.30;99.90
28773;DHT22;15925;51.222;5.678;2024-03-02T10:32:04;11.30;99.90
28773;DHT22;15925;51.222;5.678;2024-03-02T10:34:32;11.40;99.90
28773;DHT22;15925;51.222;5.678;2024-03-02T10:36:59;11.40;99.90
28773;DHT22;15925;51.222;5.678;2024-03-02T10:39:24;11.50;99.90
28773;DHT22;15925;51.222;5.678;2024-03-02T10:41:52;11.60;99.90
28773;DHT22;15925;51.222;5.678;2024-03-02T10:44:19;11.70;99.90
28773;DHT22;15925;51.222;5.678;2024-03-02T10:46:46;11.80;99.90
28773;DHT22;15925;51.222;5.678;2024-03-02T10:49:12;11.90;99.90
28773;DHT22;15925;51.222;5.678;2024-03-02T10:51:38;11.90;99.90
28773;DHT22;15925;51.222;5.678;2024-03-02T10:54:05;12.00;99.90
28773;DHT22;15925;51.222;5.678;2024-03-02T10:56:40;12.10;99.90
28773;DHT22;15925;51.222;5.678;2024-03-02T10:59:28;12.20;99.90
28773;DHT22;15925;51.222;5.678;2024-03-02T11:01:59;12.30;99.90
28773;DHT22;15925;51.222;5.678;2024-03-02T11:04:27;12.30;99.90
28773;DHT22;15925;51.222;5.678;2024-03-02T11:07:07;12.30;99.90
28773;DHT22;15925;51.222;5.678;2024-03-02T11:09:34;12.40;99.90
28773;DHT22;15925;51.222;5.678;2024-03-02T11:12:12;12.50;99.90
28773;DHT22;15925;51.222;5.678;2024-03-02T11:14:42;12.50;99.90
28773;DHT22;15925;51.222;5.678;2024-03-02T11:17:12;12.60;99.90
28773;DHT22;15925;51.222;5.678;2024-03-02T11:19:41;12.70;99.90
28773;DHT22;15925;51.222;5.678;2024-03-02T11:22:09;12.80;99.90
28773;DHT22;15925;51.222;5.678;2024-03-02T11:24:35;12.80;99.90
28773;DHT22;15925;51.222;5.678;2024-03-02T11:27:03;12.80;99.90
28773;DHT22;15925;51.222;5.678;2024-03-02T11:32:17;12.90;99.90
28773;DHT22;15925;51.222;5.678;2024-03-02T11:34:47;12.80;99.90
28773;DHT22;15925;51.222;5.678;2024-03-02T11:37:16;12.90;99.90
28773;DHT22;15925;51.222;5.678;2024-03-02T11:39:44;12.90;99.90
28773;DHT22;15925;51.222;5.678;2024-03-02T11:42:11;13.00;99.90
28773;DHT22;15925;51.222;5.678;2024-03-02T11:44:40;13.00;99.90
28773;DHT22;15925;51.222;5.678;2024-03-02T11:47:08;13.00;99.90
28773;DHT22;15925;51.222;5.678;2024-03-02T11:49:50;13.00;99.90
28773;DHT22;15925;51.222;5.678;2024-03-02T11:52:20;13.10;99.90
28773;DHT22;15925;51.222;5.678;2024-03-02T11:54:47;13.10;99.90
28773;DHT22;15925;51.222;5.678;2024-03-02T11:57:18;13.10;99.90
28773;DHT22;15925;51.222;5.678;2024-03-02T11:59:45;13.10;99.90
28773;DHT22;15925;51.222;5.678;2024-03-02T12:02:23;13.20;99.90
28773;DHT22;15925;51.222;5.678;2024-03-02T12:04:50;13.30;99.90
28773;DHT22;15925;51.222;5.678;2024-03-02T12:07:19;13.30;99.90
28773;DHT22;15925;51.222;5.678;2024-03-02T12:09:59;13.40;99.90
28773;DHT22;15925;51.222;5.678;2024-03-02T12:12:25;13.50;99.90
28773;DHT22;15925;51.222;5.678;2024-03-02T12:14:53;13.60;99.90
28773;DHT22;15925;51.222;5.678;2024-03-02T12:17:21;13.60;99.90
28773;DHT22;15925;51.222;5.678;2024-03-02T12:19:47;13.70;99.90
28773;DHT22;15925;51.222;5.678;2024-03-02T12:22:13;13.70;99.90
28773;DHT22;15925;51.222;5.678;2024-03-02T12:24:39;13.70;99.90
28773;DHT22;15925;51.222;5.678;2024-03-02T12:27:08;13.70;99.90
28773;DHT22;15925;51.222;5.678;2024-03-02T12:29:34;13.80;99.90
28773;DHT22;15925;51.222;5.678;2024-03-02T12:32:00;13.80;99.90
28773;DHT22;15925;51.222;5.678;2024-03-02T12:34:28;13.90;99.90
28773;DHT22;15925;51.222;5.678;2024-03-02T12:36:53;13.90;99.90
28773;DHT22;15925;51.222;5.678;2024-03-02T12:39:19;14.00;99.90
28773;DHT22;15925;51.222;5.678;2024-03-02T12:41:46;14.00;99.90
28773;DHT22;15925;51.222;5.678;2024-03-02T12:44:12;14.10;99.90
28773;DHT22;15925;51.222;5.678;2024-03-02T12:46:38;14.20;99.90
28773;DHT22;15925;51.222;5.678;2024-03-02T12:49:11;14.20;99.90
28773;DHT22;15925;51.222;5.678;2024-03-02T12:51:40;14.30;99.90
28773;DHT22;15925;51.222;5.678;2024-03-02T12:54:10;14.30;99.90
28773;DHT22;15925;51.222;5.678;2024-03-02T12:56:37;14.40;99.90
28773;DHT22;15925;51.222;5.678;2024-03-02T12:59:04;14.50;99.90
28773;DHT22;15925;51.222;5.678;2024-03-02T13:01:30;14.60;99.90
28773;DHT22;15925;51.222;5.678;2024-03-02T13:03:58;14.70;99.90
28773;DHT22;15925;51.222;5.678;2024-03-02T13:06:25;14.80;99.90
28773;DHT22;15925;51.222;5.678;2024-03-02T13:08:53;14.80;99.90
28773;DHT22;15925;51.222;5.678;2024-03-02T13:11:21;14.90;99.90
28773;DHT22;15925;51.222;5.678;2024-03-02T13:13:47;14.90;99.90
28773;DHT22;15925;51.222;5.678;2024-03-02T13:16:13;14.90;99.90
28773;DHT22;15925;51.222;5.678;2024-03-02T13:18:41;15.00;99.90
28773;DHT22;15925;51.222;5.678;2024-03-02T13:21:08;15.00;99.90
28773;DHT22;15925;51.222;5.678;2024-03-02T13:23:34;15.00;99.90
28773;DHT22;15925;51.222;5.678;2024-03-02T13:26:00;15.00;99.90
28773;DHT22;15925;51.222;5.678;2024-03-02T13:28:26;15.10;99.90
28773;DHT22;15925;51.222;5.678;2024-03-02T13:30:52;15.10;99.90
28773;DHT22;15925;51.222;5.678;2024-03-02T13:33:18;15.20;99.90
28773;DHT22;15925;51.222;5.678;2024-03-02T13:35:51;15.10;99.90
28773;DHT22;15925;51.222;5.678;2024-03-02T13:38:20;15.20;99.90
28773;DHT22;15925;51.222;5.678;2024-03-02T13:40:48;15.20;99.90
28773;DHT22;15925;51.222;5.678;2024-03-02T13:43:17;15.20;99.90
28773;DHT22;15925;51.222;5.678;2024-03-02T13:45:44;15.20;99.90
28773;DHT22;15925;51.222;5.678;2024-03-02T13:48:09;15.10;99.90
28773;DHT22;15925;51.222;5.678;2024-03-02T13:50:35;15.10;99.90
28773;DHT22;15925;51.222;5.678;2024-03-02T13:53:01;15.10;99.90
28773;DHT22;15925;51.222;5.678;2024-03-02T13:55:28;15.10;99.90
28773;DHT22;15925;51.222;5.678;2024-03-02T13:57:54;15.00;99.90
28773;DHT22;15925;51.222;5.678;2024-03-02T14:00:20;15.00;99.90
28773;DHT22;15925;51.222;5.678;2024-03-02T14:02:46;15.10;99.90
28773;DHT22;15925;51.222;5.678;2024-03-02T14:05:15;15.10;99.90
28773;DHT22;15925;51.222;5.678;2024-03-02T14:07:41;15.10;99.90
28773;DHT22;15925;51.222;5.678;2024-03-02T14:10:07;15.20;99.90
28773;DHT22;15925;51.222;5.678;2024-03-02T14:12:33;15.20;99.90
28773;DHT22;15925;51.222;5.678;2024-03-02T14:14:59;15.30;99.90
28773;DHT22;15925;51.222;5.678;2024-03-02T14:17:27;15.40;99.90
28773;DHT22;15925;51.222;5.678;2024-03-02T14:19:53;15.40;99.90
28773;DHT22;15925;51.222;5.678;2024-03-02T14:22:20;15.30;99.90
28773;DHT22;15925;51.222;5.678;2024-03-02T14:24:45;15.30;99.90
28773;DHT22;15925;51.222;5.678;2024-03-02T14:27:12;15.20;99.90
28773;DHT22;15925;51.222;5.678;2024-03-02T14:29:40;15.10;99.90
28773;DHT22;15925;51.222;5.678;2024-03-02T14:32:06;15.10;99.90
28773;DHT22;15925;51.222;5.678;2024-03-02T14:34:31;15.10;99.90
28773;DHT22;15925;51.222;5.678;2024-03-02T14:36:58;15.00;99.90
28773;DHT22;15925;51.222;5.678;2024-03-02T14:39:25;15.00;99.90
28773;DHT22;15925;51.222;5.678;2024-03-02T14:41:51;15.00;99.90
28773;DHT22;15925;51.222;5.678;2024-03-02T14:44:16;15.00;99.90
28773;DHT22;15925;51.222;5.678;2024-03-02T14:46:43;15.00;99.90
28773;DHT22;15925;51.222;5.678;2024-03-02T14:49:12;15.00;99.90
28773;DHT22;15925;51.222;5.678;2024-03-02T14:51:38;14.90;99.90
28773;DHT22;15925;51.222;5.678;2024-03-02T14:54:04;14.90;99.90
28773;DHT22;15925;51.222;5.678;2024-03-02T14:56:30;14.90;99.90
28773;DHT22;15925;51.222;5.678;2024-03-02T14:58:55;14.80;99.90
28773;DHT22;15925;51.222;5.678;2024-03-02T15:01:21;14.80;99.90
28773;DHT22;15925;51.222;5.678;2024-03-02T15:03:52;14.80;99.90
28773;DHT22;15925;51.222;5.678;2024-03-02T15:06:21;14.90;99.90
28773;DHT22;15925;51.222;5.678;2024-03-02T15:08:46;14.80;99.90
28773;DHT22;15925;51.222;5.678;2024-03-02T15:11:12;14.80;99.90
28773;DHT22;15925;51.222;5.678;2024-03-02T15:13:39;14.70;99.90
28773;DHT22;15925;51.222;5.678;2024-03-02T15:16:05;14.80;99.90
28773;DHT22;15925;51.222;5.678;2024-03-02T15:18:30;14.70;99.90
28773;DHT22;15925;51.222;5.678;2024-03-02T15:20:56;14.60;99.90
28773;DHT22;15925;51.222;5.678;2024-03-02T15:23:22;14.60;99.90
28773;DHT22;15925;51.222;5.678;2024-03-02T15:25:48;14.50;99.90
28773;DHT22;15925;51.222;5.678;2024-03-02T15:28:13;14.60;99.90
28773;DHT22;15925;51.222;5.678;2024-03-02T15:30:39;14.60;99.90
28773;DHT22;15925;51.222;5.678;2024-03-02T15:33:05;14.70;99.90
28773;DHT22;15925;51.222;5.678;2024-03-02T15:35:31;14.70;99.90
28773;DHT22;15925;51.222;5.678;2024-03-02T15:37:57;14.70;99.90
28773;DHT22;15925;51.222;5.678;2024-03-02T15:40:23;14.70;99.90
28773;DHT22;15925;51.222;5.678;2024-03-02T15:42:48;14.70;99.90
28773;DHT22;15925;51.222;5.678;2024-03-02T15:45:14;14.70;99.90
28773;DHT22;15925;51.222;5.678;2024-03-02T15:47:40;14.70;99.90
28773;DHT22;15925;51.222;5.678;2024-03-02T15:50:06;14.70;99.90